sensor_id;sensor_type;location;lat;lon;timestamp;pressure;altitude;pressure_sealevel;temperature;humidity
31121;BME280;17770;45.966;13.632;2024-02-23T00:02:18;99565.41;;;16.26;63.78
31121;BME280;17770;45.966;13.632;2024-02-23T00:04:44;99560.19;;;16.26;63.93
31121;BME280;17770;45.966;13.632;2024-02-23T00:07:10;99560.94;;;16.28;63.83
31121;BME280;17770;45.966;13.632;2024-02-23T00:09:36;99561.84;;;16.27;63.66
31121;BME280;17770;45.966;13.632;2024-02-23T00:12:03;99559.13;;;16.28;63.70
31121;BME280;17770;45.966;13.632;2024-02-23T00:14:29;99551.34;;;16.28;63.60
31121;BME280;17770;45.966;13.632;2024-02-23T00:16:56;99555.72;;;16.28;63.49
31121;BME280;17770;45.966;13.632;2024-02-23T00:19:23;99553.03;;;16.29;63.03
31121;BME280;17770;45.966;13.632;2024-02-23T00:21:49;99550.53;;;16.28;63.41
31121;BME280;17770;45.966;13.632;2024-02-23T00:24:16;99551.34;;;16.28;63.74
31121;BME280;17770;45.966;13.632;2024-02-23T00:26:42;99548.84;;;16.27;63.81
31121;BME280;17770;45.966;13.632;2024-02-23T00:29:08;99544.47;;;16.27;63.68
31121;BME280;17770;45.966;13.632;2024-02-23T00:31:37;99542.78;;;16.26;63.79
31121;BME280;17770;45.966;13.632;2024-02-23T00:34:03;99536.66;;;16.27;63.78
31121;BME280;17770;45.966;13.632;2024-02-23T00:36:29;99531.47;;;16.27;63.67
31121;BME280;17770;45.966;13.632;2024-02-23T00:38:55;99528.88;;;16.27;63.71
31121;BME280;17770;45.966;13.632;2024-02-23T00:41:21;99531.47;;;16.27;63.72
31121;BME280;17770;45.966;13.632;2024-02-23T00:43:47;99532.38;;;16.26;63.13
31121;BME280;17770;45.966;13.632;2024-02-23T00:46:13;99522.81;;;16.27;63.18
31121;BME280;17770;45.966;13.632;2024-02-23T00:48:40;99523.66;;;16.27;63.29
31121;BME280;17770;45.966;13.632;2024-02-23T00:51:06;99528.97;;;16.26;63.73
31121;BME280;17770;45.966;13.632;2024-02-23T00:53:33;99521.91;;;16.28;63.75
31121;BME280;17770;45.966;13.632;2024-02-23T00:55:58;99530.53;;;16.28;63.36
31121;BME280;17770;45.966;13.632;2024-02-23T00:58:24;99527.09;;;16.28;63.13
31121;BME280;17770;45.966;13.632;2024-02-23T01:00:50;99525.31;;;16.28;63.75
31121;BME280;17770;45.966;13.632;2024-02-23T01:03:16;99511.56;;;16.26;63.27
31121;BME280;17770;45.966;13.632;2024-02-23T01:05:42;99522.81;;;16.27;63.21
31121;BME280;17770;45.966;13.632;2024-02-23T01:08:10;99518.47;;;16.27;63.72
31121;BME280;17770;45.966;13.632;2024-02-23T01:10:36;99518.56;;;16.26;63.81
31121;BME280;17770;45.966;13.632;2024-02-23T01:13:02;99515.84;;;16.27;63.83
31121;BME280;17770;45.966;13.632;2024-02-23T01:15:28;99504.59;;;16.27;63.37
31121;BME280;17770;45.966;13.632;2024-02-23T01:17:54;99502.84;;;16.27;63.20
31121;BME280;17770;45.966;13.632;2024-02-23T01:20:21;99508.06;;;16.27;63.67
31121;BME280;17770;45.966;13.632;2024-02-23T01:22:47;99498.56;;;16.26;63.56
31121;BME280;17770;45.966;13.632;2024-02-23T01:25:13;99497.66;;;16.27;63.72
31121;BME280;17770;45.966;13.632;2024-02-23T01:27:41;99495.97;;;16.26;63.40
31121;BME280;17770;45.966;13.632;2024-02-23T01:30:07;99494.31;;;16.25;63.64
31121;BME280;17770;45.966;13.632;2024-02-23T01:32:33;99488.16;;;16.26;63.75
31121;BME280;17770;45.966;13.632;2024-02-23T01:34:59;99487.34;;;16.26;63.27
31121;BME280;17770;45.966;13.632;2024-02-23T01:37:25;99483.06;;;16.25;63.70
31121;BME280;17770;45.966;13.632;2024-02-23T01:39:51;99487.44;;;16.24;63.59
31121;BME280;17770;45.966;13.632;2024-02-23T01:42:17;99484.75;;;16.26;63.43
31121;BME280;17770;45.966;13.632;2024-02-23T01:44:43;99474.34;;;16.26;63.68
31121;BME280;17770;45.966;13.632;2024-02-23T01:47:08;99478.69;;;16.25;63.81
31121;BME280;17770;45.966;13.632;2024-02-23T01:49:34;99475.25;;;16.25;63.79
31121;BME280;17770;45.966;13.632;2024-02-23T01:52:01;99472.53;;;16.26;63.56
31121;BME280;17770;45.966;13.632;2024-02-23T01:54:27;99463.09;;;16.25;63.64
31121;BME280;17770;45.966;13.632;2024-02-23T01:56:55;99465.69;;;16.25;63.04
31121;BME280;17770;45.966;13.632;2024-02-23T01:59:21;99465.69;;;16.25;63.64
31121;BME280;17770;45.966;13.632;2024-02-23T02:01:47;99462.13;;;16.26;63.66
31121;BME280;17770;45.966;13.632;2024-02-23T02:04:13;99462.25;;;16.25;63.47
31121;BME280;17770;45.966;13.632;2024-02-23T02:06:39;99461.31;;;16.26;63.47
31121;BME280;17770;45.966;13.632;2024-02-23T02:09:05;99463.94;;;16.26;63.73
31121;BME280;17770;45.966;13.632;2024-02-23T02:11:31;99457.03;;;16.25;63.16
31121;BME280;17770;45.966;13.632;2024-02-23T02:13:57;99448.41;;;16.24;63.14
31121;BME280;17770;45.966;13.632;2024-02-23T02:16:23;99452.69;;;16.25;63.88
31121;BME280;17770;45.966;13.632;2024-02-23T02:18:49;99448.41;;;16.24;63.58
31121;BME280;17770;45.966;13.632;2024-02-23T02:21:14;99444.03;;;16.25;63.25
31121;BME280;17770;45.966;13.632;2024-02-23T02:23:42;99434.56;;;16.24;63.34
31121;BME280;17770;45.966;13.632;2024-02-23T02:26:07;99437.16;;;16.24;63.71
31121;BME280;17770;45.966;13.632;2024-02-23T02:28:33;99441.53;;;16.23;63.73
31121;BME280;17770;45.966;13.632;2024-02-23T02:31:00;99436.34;;;16.23;63.73
31121;BME280;17770;45.966;13.632;2024-02-23T02:33:25;99434.56;;;16.24;63.30
31121;BME280;17770;45.966;13.632;2024-02-23T02:35:51;99430.22;;;16.24;63.11
31121;BME280;17770;45.966;13.632;2024-02-23T02:38:17;99432.81;;;16.24;63.04
31121;BME280;17770;45.966;13.632;2024-02-23T02:40:43;99419.81;;;16.24;63.76
31121;BME280;17770;45.966;13.632;2024-02-23T02:43:09;99421.47;;;16.25;63.79
31121;BME280;17770;45.966;13.632;2024-02-23T02:45:35;99418.75;;;16.27;63.61
31121;BME280;17770;45.966;13.632;2024-02-23T02:48:01;99416.38;;;16.24;63.42
31121;BME280;17770;45.966;13.632;2024-02-23T02:50:30;99412.91;;;16.23;63.72
31121;BME280;17770;45.966;13.632;2024-02-23T02:52:56;99409.41;;;16.24;63.49
31121;BME280;17770;45.966;13.632;2024-02-23T02:55:22;99398.16;;;16.24;63.35
31121;BME280;17770;45.966;13.632;2024-02-23T02:57:48;99401.59;;;16.24;63.76
31121;BME280;17770;45.966;13.632;2024-02-23T03:00:14;99399.81;;;16.25;63.30
31121;BME280;17770;45.966;13.632;2024-02-23T03:02:39;99392.09;;;16.23;63.80
31121;BME280;17770;45.966;13.632;2024-02-23T03:05:05;99388.59;;;16.24;63.27
31121;BME280;17770;45.966;13.632;2024-02-23T03:07:31;99380.88;;;16.23;63.48
31121;BME280;17770;45.966;13.632;2024-02-23T03:09:57;99377.44;;;16.22;63.97
31121;BME280;17770;45.966;13.632;2024-02-23T03:12:23;99376.59;;;16.22;63.48
31121;BME280;17770;45.966;13.632;2024-02-23T03:14:49;99383.59;;;16.21;63.46
31121;BME280;17770;45.966;13.632;2024-02-23T03:17:15;99366.94;;;16.24;63.61
31121;BME280;17770;45.966;13.632;2024-02-23T03:19:41;99363.50;;;16.23;63.42
31121;BME280;17770;45.966;13.632;2024-02-23T03:22:07;99360.06;;;16.23;63.13
31121;BME280;17770;45.966;13.632;2024-02-23T03:24:33;99355.78;;;16.22;63.58
31121;BME280;17770;45.966;13.632;2024-02-23T03:26:59;99354.13;;;16.21;63.75
31121;BME280;17770;45.966;13.632;2024-02-23T03:29:25;99355.69;;;16.23;63.54
31121;BME280;17770;45.966;13.632;2024-02-23T03:31:55;99351.31;;;16.24;63.57
31121;BME280;17770;45.966;13.632;2024-02-23T03:34:21;99351.44;;;16.22;63.71
31121;BME280;17770;45.966;13.632;2024-02-23T03:36:47;99347.88;;;16.23;63.54
31121;BME280;17770;45.966;13.632;2024-02-23T03:39:13;99353.09;;;16.23;63.74
31121;BME280;17770;45.966;13.632;2024-02-23T03:41:39;99347.19;;;16.21;63.38
31121;BME280;17770;45.966;13.632;2024-02-23T03:44:05;99349.78;;;16.21;63.43
31121;BME280;17770;45.966;13.632;2024-02-23T03:46:31;99351.44;;;16.22;63.54
31121;BME280;17770;45.966;13.632;2024-02-23T03:48:56;99352.38;;;16.21;63.20
31121;BME280;17770;45.966;13.632;2024-02-23T03:51:23;99347.06;;;16.23;63.15
31121;BME280;17770;45.966;13.632;2024-02-23T03:53:49;99343.63;;;16.22;63.61
31121;BME280;17770;45.966;13.632;2024-02-23T03:56:15;99347.88;;;16.23;63.59
31121;BME280;17770;45.966;13.632;2024-02-23T03:58:41;99348.94;;;16.21;63.55
31121;BME280;17770;45.966;13.632;2024-02-23T04:01:07;99342.88;;;16.20;63.58
31121;BME280;17770;45.966;13.632;2024-02-23T04:03:33;99335.94;;;16.21;63.75
31121;BME280;17770;45.966;13.632;2024-02-23T04:05:59;99323.75;;;16.21;63.27
31121;BME280;17770;45.966;13.632;2024-02-23T04:08:24;99338.63;;;16.19;63.65
31121;BME280;17770;45.966;13.632;2024-02-23T04:10:50;99329.78;;;16.22;63.19
31121;BME280;17770;45.966;13.632;2024-02-23T04:13:16;99318.56;;;16.21;63.54
31121;BME280;17770;45.966;13.632;2024-02-23T04:15:43;99321.16;;;16.21;63.43
31121;BME280;17770;45.966;13.632;2024-02-23T04:18:09;99314.16;;;16.22;63.64
31121;BME280;17770;45.966;13.632;2024-02-23T04:20:35;99313.44;;;16.20;62.95
31121;BME280;17770;45.966;13.632;2024-02-23T04:23:01;99308.22;;;16.20;63.34
31121;BME280;17770;45.966;13.632;2024-02-23T04:25:27;99311.56;;;16.22;63.53
31121;BME280;17770;45.966;13.632;2024-02-23T04:27:53;99321.16;;;16.21;63.46
31121;BME280;17770;45.966;13.632;2024-02-23T04:30:19;99315.97;;;16.21;63.17
31121;BME280;17770;45.966;13.632;2024-02-23T04:32:45;99315.97;;;16.21;63.43
31121;BME280;17770;45.966;13.632;2024-02-23T04:35:10;99313.44;;;16.20;63.37
31121;BME280;17770;45.966;13.632;2024-02-23T04:37:36;99308.22;;;16.20;63.27
31121;BME280;17770;45.966;13.632;2024-02-23T04:40:03;99316.03;;;16.20;63.66
31121;BME280;17770;45.966;13.632;2024-02-23T04:42:31;99310.03;;;16.19;63.11
31121;BME280;17770;45.966;13.632;2024-02-23T04:44:57;99292.63;;;16.20;63.22
31121;BME280;17770;45.966;13.632;2024-02-23T04:47:23;99292.63;;;16.20;63.49
31121;BME280;17770;45.966;13.632;2024-02-23T04:49:48;99290.88;;;16.20;63.32
31121;BME280;17770;45.966;13.632;2024-02-23T04:52:15;99285.66;;;16.20;63.49
31121;BME280;17770;45.966;13.632;2024-02-23T04:54:41;99274.34;;;16.21;63.18
31121;BME280;17770;45.966;13.632;2024-02-23T04:57:07;99275.25;;;16.20;63.14
31121;BME280;17770;45.966;13.632;2024-02-23T04:59:33;99272.75;;;16.19;63.43
31121;BME280;17770;45.966;13.632;2024-02-23T05:01:58;99277.97;;;16.19;63.60
31121;BME280;17770;45.966;13.632;2024-02-23T05:04:24;99271.13;;;16.18;63.21
31121;BME280;17770;45.966;13.632;2024-02-23T05:06:52;99268.50;;;16.18;63.49
31121;BME280;17770;45.966;13.632;2024-02-23T05:09:18;99262.34;;;16.19;63.13
31121;BME280;17770;45.966;13.632;2024-02-23T05:11:44;99258.09;;;16.18;63.21
31121;BME280;17770;45.966;13.632;2024-02-23T05:14:11;99260.72;;;16.18;63.65
31121;BME280;17770;45.966;13.632;2024-02-23T05:16:37;99263.31;;;16.18;63.17
31121;BME280;17770;45.966;13.632;2024-02-23T05:19:03;99260.59;;;16.19;63.61
31121;BME280;17770;45.966;13.632;2024-02-23T05:21:29;99248.50;;;16.18;63.21
31121;BME280;17770;45.966;13.632;2024-02-23T05:23:55;99243.31;;;16.18;63.17
31121;BME280;17770;45.966;13.632;2024-02-23T05:26:20;99249.47;;;16.17;63.33
31121;BME280;17770;45.966;13.632;2024-02-23T05:28:46;99249.47;;;16.17;63.39
31121;BME280;17770;45.966;13.632;2024-02-23T05:31:12;99243.31;;;16.18;63.10
31121;BME280;17770;45.966;13.632;2024-02-23T05:33:38;99238.22;;;16.17;63.17
31121;BME280;17770;45.966;13.632;2024-02-23T05:36:04;99247.69;;;16.18;63.64
31121;BME280;17770;45.966;13.632;2024-02-23T05:38:31;99250.19;;;16.19;62.89
31121;BME280;17770;45.966;13.632;2024-02-23T05:40:57;99244.16;;;16.19;63.23
31121;BME280;17770;45.966;13.632;2024-02-23T05:43:22;99237.19;;;16.19;63.17
31121;BME280;17770;45.966;13.632;2024-02-23T05:45:48;99229.59;;;16.16;63.62
31121;BME280;17770;45.966;13.632;2024-02-23T05:48:15;99248.50;;;16.18;63.37
31121;BME280;17770;45.966;13.632;2024-02-23T05:50:41;99241.66;;;16.17;63.46
31121;BME280;17770;45.966;13.632;2024-02-23T05:53:06;99242.50;;;16.18;63.06
31121;BME280;17770;45.966;13.632;2024-02-23T05:55:33;99233.84;;;16.17;63.27
31121;BME280;17770;45.966;13.632;2024-02-23T05:57:59;99237.41;;;16.16;62.94
31121;BME280;17770;45.966;13.632;2024-02-23T06:00:25;99233.00;;;16.17;63.38
31121;BME280;17770;45.966;13.632;2024-02-23T06:02:51;99233.97;;;16.16;63.05
31121;BME280;17770;45.966;13.632;2024-02-23T06:05:17;99227.00;;;16.16;63.05
31121;BME280;17770;45.966;13.632;2024-02-23T06:07:42;99224.28;;;16.18;63.53
31121;BME280;17770;45.966;13.632;2024-02-23T06:10:08;99219.19;;;16.16;63.21
31121;BME280;17770;45.966;13.632;2024-02-23T06:12:34;99208.78;;;16.16;63.07
31121;BME280;17770;45.966;13.632;2024-02-23T06:15:00;99218.34;;;16.16;63.46
31121;BME280;17770;45.966;13.632;2024-02-23T06:17:26;99215.88;;;16.14;62.91
31121;BME280;17770;45.966;13.632;2024-02-23T06:19:52;99208.06;;;16.14;62.99
31121;BME280;17770;45.966;13.632;2024-02-23T06:22:18;99194.09;;;16.15;63.44
31121;BME280;17770;45.966;13.632;2024-02-23T06:24:47;99197.66;;;16.14;63.46
31121;BME280;17770;45.966;13.632;2024-02-23T06:27:13;99187.25;;;16.14;63.20
31121;BME280;17770;45.966;13.632;2024-02-23T06:29:38;99185.47;;;16.15;63.37
31121;BME280;17770;45.966;13.632;2024-02-23T06:32:05;99188.19;;;16.13;63.00
31121;BME280;17770;45.966;13.632;2024-02-23T06:34:31;99192.56;;;16.13;62.95
31121;BME280;17770;45.966;13.632;2024-02-23T06:36:56;99188.19;;;16.13;63.41
31121;BME280;17770;45.966;13.632;2024-02-23T06:39:22;99183.81;;;16.14;63.16
31121;BME280;17770;45.966;13.632;2024-02-23T06:41:48;99174.25;;;16.14;62.99
31121;BME280;17770;45.966;13.632;2024-02-23T06:44:14;99167.47;;;16.12;62.98
31121;BME280;17770;45.966;13.632;2024-02-23T06:46:40;99171.75;;;16.13;63.00
31121;BME280;17770;45.966;13.632;2024-02-23T06:49:06;99171.75;;;16.13;62.99
31121;BME280;17770;45.966;13.632;2024-02-23T06:51:32;99168.22;;;16.14;63.07
31121;BME280;17770;45.966;13.632;2024-02-23T06:53:58;99173.41;;;16.14;62.82
31121;BME280;17770;45.966;13.632;2024-02-23T06:56:24;99182.97;;;16.13;62.90
31121;BME280;17770;45.966;13.632;2024-02-23T06:58:50;99167.47;;;16.12;63.41
31121;BME280;17770;45.966;13.632;2024-02-23T07:01:16;99163.13;;;16.12;63.42
31121;BME280;17770;45.966;13.632;2024-02-23T07:03:41;99166.56;;;16.13;63.63
31121;BME280;17770;45.966;13.632;2024-02-23T07:06:09;99163.13;;;16.12;63.23
31121;BME280;17770;45.966;13.632;2024-02-23T07:08:38;99162.28;;;16.12;63.27
31121;BME280;17770;45.966;13.632;2024-02-23T07:11:04;99164.06;;;16.11;63.37
31121;BME280;17770;45.966;13.632;2024-02-23T07:13:29;99156.16;;;16.13;62.86
31121;BME280;17770;45.966;13.632;2024-02-23T07:15:55;99160.53;;;16.12;62.89
31121;BME280;17770;45.966;13.632;2024-02-23T07:18:22;99153.66;;;16.11;62.76
31121;BME280;17770;45.966;13.632;2024-02-23T07:20:47;99159.69;;;16.12;63.02
31121;BME280;17770;45.966;13.632;2024-02-23T07:23:13;99154.47;;;16.12;63.10
31121;BME280;17770;45.966;13.632;2024-02-23T07:25:41;99133.66;;;16.12;62.77
31121;BME280;17770;45.966;13.632;2024-02-23T07:28:07;99144.91;;;16.12;63.54
31121;BME280;17770;45.966;13.632;2024-02-23T07:30:33;99136.28;;;16.12;63.06
31121;BME280;17770;45.966;13.632;2024-02-23T07:33:00;99152.72;;;16.12;63.00
31121;BME280;17770;45.966;13.632;2024-02-23T07:35:26;99136.50;;;16.09;63.26
31121;BME280;17770;45.966;13.632;2024-02-23T07:37:54;99128.47;;;16.12;62.92
31121;BME280;17770;45.966;13.632;2024-02-23T07:40:20;99124.09;;;16.12;63.43
31121;BME280;17770;45.966;13.632;2024-02-23T07:42:46;99120.78;;;16.10;62.87
31121;BME280;17770;45.966;13.632;2024-02-23T07:45:12;99117.25;;;16.11;62.81
31121;BME280;17770;45.966;13.632;2024-02-23T07:47:38;99114.66;;;16.11;63.39
31121;BME280;17770;45.966;13.632;2024-02-23T07:50:04;99118.28;;;16.09;63.55
31121;BME280;17770;45.966;13.632;2024-02-23T07:52:30;99099.13;;;16.10;63.02
31121;BME280;17770;45.966;13.632;2024-02-23T07:54:56;99111.31;;;16.09;63.57
31121;BME280;17770;45.966;13.632;2024-02-23T07:57:22;99102.69;;;16.09;63.63
31121;BME280;17770;45.966;13.632;2024-02-23T07:59:48;99103.53;;;16.09;63.84
31121;BME280;17770;45.966;13.632;2024-02-23T08:02:14;99098.31;;;16.09;63.14
31121;BME280;17770;45.966;13.632;2024-02-23T08:04:40;99097.47;;;16.09;63.46
31121;BME280;17770;45.966;13.632;2024-02-23T08:07:08;99098.31;;;16.09;63.60
31121;BME280;17770;45.966;13.632;2024-02-23T08:09:33;99092.28;;;16.09;63.61
31121;BME280;17770;45.966;13.632;2024-02-23T08:11:59;99098.22;;;16.11;64.14
31121;BME280;17770;45.966;13.632;2024-02-23T08:14:25;99090.41;;;16.11;63.83
31121;BME280;17770;45.966;13.632;2024-02-23T08:16:51;99084.38;;;16.10;63.79
31121;BME280;17770;45.966;13.632;2024-02-23T08:19:17;99067.00;;;16.11;63.30
31121;BME280;17770;45.966;13.632;2024-02-23T08:21:43;99060.13;;;16.10;63.22
31121;BME280;17770;45.966;13.632;2024-02-23T08:24:09;99059.19;;;16.11;63.58
31121;BME280;17770;45.966;13.632;2024-02-23T08:26:35;99048.91;;;16.09;63.14
31121;BME280;17770;45.966;13.632;2024-02-23T08:29:03;99051.41;;;16.11;63.40
31121;BME280;17770;45.966;13.632;2024-02-23T08:31:30;99064.41;;;16.11;63.71
31121;BME280;17770;45.966;13.632;2024-02-23T08:33:56;99061.91;;;16.09;63.67
31121;BME280;17770;45.966;13.632;2024-02-23T08:36:22;99072.31;;;16.09;63.05
31121;BME280;17770;45.966;13.632;2024-02-23T08:38:48;99054.91;;;16.10;63.60
31121;BME280;17770;45.966;13.632;2024-02-23T08:41:13;99052.44;;;16.08;63.56
31121;BME280;17770;45.966;13.632;2024-02-23T08:43:40;99050.56;;;16.10;63.53
31121;BME280;17770;45.966;13.632;2024-02-23T08:46:06;99033.91;;;16.13;64.35
31121;BME280;17770;45.966;13.632;2024-02-23T08:48:32;99037.66;;;16.32;64.40
31121;BME280;17770;45.966;13.632;2024-02-23T08:50:58;99033.69;;;16.50;65.13
31121;BME280;17770;45.966;13.632;2024-02-23T08:53:24;99038.25;;;16.70;65.39
31121;BME280;17770;45.966;13.632;2024-02-23T08:55:49;99021.47;;;16.85;64.39
31121;BME280;17770;45.966;13.632;2024-02-23T08:58:15;99037.81;;;16.99;65.30
31121;BME280;17770;45.966;13.632;2024-02-23T09:00:41;99032.59;;;17.10;65.92
31121;BME280;17770;45.966;13.632;2024-02-23T09:03:07;99036.25;;;17.18;67.28
31121;BME280;17770;45.966;13.632;2024-02-23T09:05:33;99020.25;;;17.23;67.29
31121;BME280;17770;45.966;13.632;2024-02-23T09:07:59;99026.66;;;17.30;67.13
31121;BME280;17770;45.966;13.632;2024-02-23T09:10:24;99014.09;;;17.35;67.57
31121;BME280;17770;45.966;13.632;2024-02-23T09:12:50;99009.22;;;17.41;67.94
31121;BME280;17770;45.966;13.632;2024-02-23T09:15:16;99000.94;;;17.47;68.11
31121;BME280;17770;45.966;13.632;2024-02-23T09:17:42;98989.47;;;17.50;67.32
31121;BME280;17770;45.966;13.632;2024-02-23T09:20:08;98999.31;;;17.46;67.26
31121;BME280;17770;45.966;13.632;2024-02-23T09:22:34;99010.66;;;17.34;66.85
31121;BME280;17770;45.966;13.632;2024-02-23T09:25:02;99014.00;;;17.25;68.06
31121;BME280;17770;45.966;13.632;2024-02-23T09:27:28;99020.25;;;17.23;67.93
31121;BME280;17770;45.966;13.632;2024-02-23T09:29:54;99020.13;;;17.24;68.23
31121;BME280;17770;45.966;13.632;2024-02-23T09:32:20;99009.72;;;17.24;65.47
31121;BME280;17770;45.966;13.632;2024-02-23T09:34:46;99002.25;;;17.20;65.37
31121;BME280;17770;45.966;13.632;2024-02-23T09:37:11;99013.97;;;17.14;64.69
31121;BME280;17770;45.966;13.632;2024-02-23T09:39:37;98985.81;;;17.08;64.77
31121;BME280;17770;45.966;13.632;2024-02-23T09:42:03;98999.31;;;17.02;64.51
31121;BME280;17770;45.966;13.632;2024-02-23T09:44:33;98978.81;;;16.98;64.72
31121;BME280;17770;45.966;13.632;2024-02-23T09:47:00;98995.78;;;16.92;64.55
31121;BME280;17770;45.966;13.632;2024-02-23T09:49:27;98987.50;;;16.87;64.42
31121;BME280;17770;45.966;13.632;2024-02-23T09:51:53;98979.09;;;16.83;64.18
31121;BME280;17770;45.966;13.632;2024-02-23T09:54:20;98983.69;;;16.80;64.58
31121;BME280;17770;45.966;13.632;2024-02-23T09:56:46;98983.94;;;16.77;64.10
31121;BME280;17770;45.966;13.632;2024-02-23T09:59:12;98978.84;;;16.75;64.11
31121;BME280;17770;45.966;13.632;2024-02-23T10:01:39;98978.25;;;16.72;64.32
31121;BME280;17770;45.966;13.632;2024-02-23T10:04:05;98962.88;;;16.69;64.29
31121;BME280;17770;45.966;13.632;2024-02-23T10:06:32;98958.72;;;16.66;63.89
31121;BME280;17770;45.966;13.632;2024-02-23T10:08:58;98951.97;;;16.64;63.97
31121;BME280;17770;45.966;13.632;2024-02-23T10:11:24;98945.22;;;16.61;64.04
31121;BME280;17770;45.966;13.632;2024-02-23T10:13:51;98942.75;;;16.60;64.12
31121;BME280;17770;45.966;13.632;2024-02-23T10:16:20;98947.22;;;16.58;64.51
31121;BME280;17770;45.966;13.632;2024-02-23T10:18:49;98949.94;;;16.56;63.96
31121;BME280;17770;45.966;13.632;2024-02-23T10:21:15;98940.50;;;16.55;64.32
31121;BME280;17770;45.966;13.632;2024-02-23T10:23:41;98947.59;;;16.53;64.01
31121;BME280;17770;45.966;13.632;2024-02-23T10:26:07;98947.69;;;16.52;63.97
31121;BME280;17770;45.966;13.632;2024-02-23T10:28:37;98943.56;;;16.49;64.04
31121;BME280;17770;45.966;13.632;2024-02-23T10:31:04;98937.53;;;16.49;63.91
31121;BME280;17770;45.966;13.632;2024-02-23T10:33:30;98936.69;;;16.48;63.96
31121;BME280;17770;45.966;13.632;2024-02-23T10:35:56;98918.47;;;16.48;63.88
31121;BME280;17770;45.966;13.632;2024-02-23T10:38:23;98914.34;;;16.46;64.42
31121;BME280;17770;45.966;13.632;2024-02-23T10:40:50;98924.00;;;16.44;64.41
31121;BME280;17770;45.966;13.632;2024-02-23T10:43:19;98912.88;;;16.42;64.21
31121;BME280;17770;45.966;13.632;2024-02-23T10:45:46;98906.84;;;16.41;64.20
31121;BME280;17770;45.966;13.632;2024-02-23T10:48:13;98907.69;;;16.42;64.14
31121;BME280;17770;45.966;13.632;2024-02-23T10:50:40;98916.44;;;16.41;63.82
31121;BME280;17770;45.966;13.632;2024-02-23T10:53:07;98894.78;;;16.40;64.11
31121;BME280;17770;45.966;13.632;2024-02-23T10:55:34;98908.75;;;16.39;64.24
31121;BME280;17770;45.966;13.632;2024-02-23T10:58:02;98900.13;;;16.39;64.24
31121;BME280;17770;45.966;13.632;2024-02-23T11:00:28;98911.44;;;16.38;64.08
31121;BME280;17770;45.966;13.632;2024-02-23T11:02:54;98906.25;;;16.38;64.11
31121;BME280;17770;45.966;13.632;2024-02-23T11:05:21;98895.03;;;16.37;63.64
31121;BME280;17770;45.966;13.632;2024-02-23T11:07:48;98891.72;;;16.35;64.37
31121;BME280;17770;45.966;13.632;2024-02-23T11:10:15;98891.72;;;16.35;64.43
31121;BME280;17770;45.966;13.632;2024-02-23T11:12:41;98877.88;;;16.35;64.53
31121;BME280;17770;45.966;13.632;2024-02-23T11:15:07;98875.25;;;16.35;64.29
31121;BME280;17770;45.966;13.632;2024-02-23T11:17:35;98857.06;;;16.35;63.92
31121;BME280;17770;45.966;13.632;2024-02-23T11:20:04;98867.34;;;16.36;64.03
31121;BME280;17770;45.966;13.632;2024-02-23T11:22:31;98859.66;;;16.35;63.77
31121;BME280;17770;45.966;13.632;2024-02-23T11:25:04;98851.97;;;16.33;63.93
31121;BME280;17770;45.966;13.632;2024-02-23T11:27:31;98848.56;;;16.33;64.40
31121;BME280;17770;45.966;13.632;2024-02-23T11:30:07;98841.69;;;16.32;64.32
31121;BME280;17770;45.966;13.632;2024-02-23T11:32:38;98826.06;;;16.32;64.26
31121;BME280;17770;45.966;13.632;2024-02-23T11:35:05;98838.25;;;16.31;63.79
31121;BME280;17770;45.966;13.632;2024-02-23T11:37:31;98814.97;;;16.30;64.12
31121;BME280;17770;45.966;13.632;2024-02-23T11:39:59;98832.25;;;16.31;64.02
31121;BME280;17770;45.966;13.632;2024-02-23T11:42:26;98821.00;;;16.30;64.15
31121;BME280;17770;45.966;13.632;2024-02-23T11:44:52;98811.53;;;16.29;64.13
31121;BME280;17770;45.966;13.632;2024-02-23T11:47:19;98816.88;;;16.28;64.23
31121;BME280;17770;45.966;13.632;2024-02-23T11:49:45;98806.34;;;16.29;64.17
31121;BME280;17770;45.966;13.632;2024-02-23T11:52:11;98813.31;;;16.29;64.04
31121;BME280;17770;45.966;13.632;2024-02-23T11:54:37;98796.75;;;16.30;64.19
31121;BME280;17770;45.966;13.632;2024-02-23T11:57:03;98790.03;;;16.27;64.31
31121;BME280;17770;45.966;13.632;2024-02-23T11:59:29;98777.00;;;16.27;64.20
31121;BME280;17770;45.966;13.632;2024-02-23T12:01:55;98790.84;;;16.28;63.80
31121;BME280;17770;45.966;13.632;2024-02-23T12:04:21;98773.56;;;16.27;64.11
31121;BME280;17770;45.966;13.632;2024-02-23T12:06:47;98779.63;;;16.27;63.66
31121;BME280;17770;45.966;13.632;2024-02-23T12:09:13;98766.59;;;16.27;63.90
31121;BME280;17770;45.966;13.632;2024-02-23T12:11:39;98761.41;;;16.27;64.15
31121;BME280;17770;45.966;13.632;2024-02-23T12:14:05;98745.91;;;16.26;63.74
31121;BME280;17770;45.966;13.632;2024-02-23T12:16:34;98745.09;;;16.25;63.79
31121;BME280;17770;45.966;13.632;2024-02-23T12:19:03;98762.59;;;16.23;64.27
31121;BME280;17770;45.966;13.632;2024-02-23T12:21:29;98748.66;;;16.24;64.18
31121;BME280;17770;45.966;13.632;2024-02-23T12:23:55;98742.59;;;16.24;63.54
31121;BME280;17770;45.966;13.632;2024-02-23T12:26:22;98735.63;;;16.24;64.22
31121;BME280;17770;45.966;13.632;2024-02-23T12:28:47;98725.22;;;16.24;64.05
31121;BME280;17770;45.966;13.632;2024-02-23T12:31:13;98723.56;;;16.23;63.83
31121;BME280;17770;45.966;13.632;2024-02-23T12:33:39;98725.34;;;16.23;64.03
31121;BME280;17770;45.966;13.632;2024-02-23T12:36:06;98718.47;;;16.22;63.97
31121;BME280;17770;45.966;13.632;2024-02-23T12:38:32;98720.16;;;16.23;64.20
31121;BME280;17770;45.966;13.632;2024-02-23T12:40:59;98720.97;;;16.23;64.08
31121;BME280;17770;45.966;13.632;2024-02-23T12:43:25;98716.84;;;16.21;63.73
31121;BME280;17770;45.966;13.632;2024-02-23T12:45:54;98698.50;;;16.22;64.01